createdAt,value
2023-04-02T00:02:58.555Z,7.28
2023-04-02T00:08:10.255Z,7.30
2023-04-02T00:13:11.997Z,7.33
2023-04-02T00:18:16.877Z,7.32
2023-04-02T00:23:19.305Z,7.29
2023-04-02T00:28:23.961Z,7.28
2023-04-02T00:33:31.493Z,7.28
2023-04-02T00:38:35.299Z,7.32
2023-04-02T00:43:39.199Z,7.35
2023-04-02T00:48:53.062Z,7.41
2023-04-02T00:53:56.939Z,7.49
2023-04-02T00:58:58.729Z,7.52
2023-04-02T01:04:05.678Z,7.58
2023-04-02T01:09:26.583Z,7.61
2023-04-02T01:14:45.827Z,7.64
2023-04-02T01:20:09.236Z,7.66
2023-04-02T01:25:19.378Z,7.67
2023-04-02T01:30:22.017Z,7.70
2023-04-02T01:35:26.010Z,7.74
2023-04-02T01:40:45.682Z,7.77
2023-04-02T01:45:50.652Z,7.75
2023-04-02T01:50:55.399Z,7.77
2023-04-02T01:56:02.140Z,7.77
2023-04-02T02:01:19.959Z,7.78
2023-04-02T02:06:25.136Z,7.80
2023-04-02T02:11:29.942Z,7.81
2023-04-02T02:16:33.297Z,7.77
2023-04-02T02:21:44.605Z,7.71
2023-04-02T02:26:50.508Z,7.60
2023-04-02T02:31:54.945Z,7.56
2023-04-02T02:37:04.344Z,7.45
2023-04-02T02:42:18.437Z,7.42
2023-04-02T02:47:33.513Z,7.45
2023-04-02T02:52:44.377Z,7.54
2023-04-02T02:57:54.010Z,7.59
2023-04-02T03:02:57.833Z,7.52
2023-04-02T03:08:06.820Z,7.40
2023-04-02T03:13:14.695Z,7.35
2023-04-02T03:18:28.882Z,7.35
2023-04-02T03:23:39.476Z,7.39
2023-04-02T03:28:52.407Z,7.35
2023-04-02T03:34:01.356Z,7.40
2023-04-02T03:39:18.293Z,7.43
2023-04-02T03:44:26.250Z,7.45
2023-04-02T03:49:33.468Z,7.41
2023-04-02T03:54:35.230Z,7.37
2023-04-02T03:59:44.744Z,7.39
2023-04-02T04:04:50.863Z,7.46
2023-04-02T04:09:53.399Z,7.46
2023-04-02T04:15:08.710Z,7.49
2023-04-02T04:20:28.105Z,7.54
2023-04-02T04:25:33.878Z,7.55
2023-04-02T04:31:04.159Z,7.61
2023-04-02T04:36:27.892Z,7.65
2023-04-02T04:41:37.812Z,7.62
2023-04-02T04:46:47.797Z,7.65
2023-04-02T04:52:17.604Z,7.61
2023-04-02T04:57:33.809Z,7.60
2023-04-02T05:02:44.407Z,7.60
2023-04-02T05:07:50.494Z,7.63
2023-04-02T05:13:16.655Z,7.61
2023-04-02T05:18:26.349Z,7.58
2023-04-02T05:23:43.144Z,7.54
2023-04-02T05:28:56.001Z,7.54
2023-04-02T05:33:58.018Z,7.54
2023-04-02T05:39:00.626Z,7.63
2023-04-02T05:44:30.217Z,7.51
2023-04-02T05:49:55.296Z,7.40
2023-04-02T05:55:11.397Z,7.38
2023-04-02T06:00:21.686Z,7.35
2023-04-02T06:05:34.156Z,7.39
2023-04-02T06:10:46.373Z,7.47
2023-04-02T06:15:48.505Z,7.59
2023-04-02T06:20:58.076Z,7.70
2023-04-02T06:26:27.075Z,7.76
2023-04-02T06:31:50.640Z,7.90
2023-04-02T06:37:35.500Z,7.98
2023-04-02T06:42:50.082Z,8.10
2023-04-02T06:48:17.820Z,8.19
2023-04-02T06:53:41.382Z,8.24
2023-04-02T06:58:46.957Z,8.42
2023-04-02T07:03:49.152Z,8.57
2023-04-02T07:08:59.502Z,8.72
2023-04-02T07:14:01.910Z,8.81
2023-04-02T07:19:04.238Z,8.87
2023-04-02T07:24:08.455Z,8.94
2023-04-02T07:29:15.255Z,9.04
2023-04-02T07:34:16.806Z,9.14
2023-04-02T07:39:18.323Z,9.18
2023-04-02T07:44:19.897Z,9.28
2023-04-02T07:49:21.998Z,9.58
2023-04-02T07:54:23.545Z,9.82
2023-04-02T07:59:27.558Z,10.02
2023-04-02T08:04:29.118Z,10.19
2023-04-02T08:09:30.638Z,10.47
2023-04-02T08:14:32.203Z,10.74
2023-04-02T08:19:44.418Z,11.09
2023-04-02T08:24:53.573Z,11.52
2023-04-02T08:29:55.242Z,12.00
2023-04-02T08:34:57.103Z,12.32
2023-04-02T08:39:58.664Z,12.64
2023-04-02T08:45:21.080Z,12.96
2023-04-02T08:50:31.576Z,13.23
2023-04-02T08:56:06.086Z,13.44
2023-04-02T09:01:19.195Z,13.62
2023-04-02T09:06:23.051Z,13.57
2023-04-02T09:11:36.159Z,13.93
2023-04-02T09:16:52.817Z,14.64
2023-04-02T09:22:31.652Z,15.52
2023-04-02T09:27:36.629Z,15.70
2023-04-02T09:32:41.269Z,15.57
2023-04-02T09:37:44.698Z,15.67
2023-04-02T09:42:46.541Z,16.35
2023-04-02T09:47:49.484Z,16.63
2023-04-02T09:52:51.415Z,16.01
2023-04-02T09:58:12.148Z,16.08
2023-04-02T10:03:29.084Z,16.31
2023-04-02T10:08:31.993Z,16.56
2023-04-02T10:13:54.515Z,16.68
2023-04-02T10:19:19.122Z,17.32
2023-04-02T10:24:20.767Z,17.94
2023-04-02T10:29:48.398Z,18.18
2023-04-02T10:35:08.864Z,18.12
2023-04-02T10:40:32.735Z,17.61
2023-04-02T10:45:51.624Z,16.88
2023-04-02T10:51:04.053Z,16.22
2023-04-02T10:56:09.950Z,15.06
2023-04-02T11:01:26.968Z,14.57
2023-04-02T11:06:37.887Z,14.65
2023-04-02T11:11:43.082Z,14.40
2023-04-02T11:16:45.228Z,14.28
2023-04-02T11:21:59.486Z,13.91
2023-04-02T11:27:11.355Z,13.52
2023-04-02T11:32:27.826Z,13.38
2023-04-02T11:37:38.575Z,13.24
2023-04-02T11:42:45.696Z,13.01
2023-04-02T11:48:17.304Z,13.32
2023-04-02T11:53:33.220Z,13.36
2023-04-02T11:58:48.953Z,13.24
2023-04-02T12:04:06.971Z,13.13
2023-04-02T12:09:26.763Z,13.58
2023-04-02T12:14:31.277Z,13.64
2023-04-02T12:19:33.208Z,13.76
2023-04-02T12:24:34.897Z,13.60
2023-04-02T12:29:38.998Z,13.72
2023-04-02T12:34:45.622Z,13.86
2023-04-02T12:39:58.878Z,14.10
2023-04-02T12:45:01.736Z,14.26
2023-04-02T12:50:03.694Z,14.71
2023-04-02T12:55:16.715Z,14.54
2023-04-02T13:00:21.265Z,14.05
2023-04-02T13:05:41.186Z,13.52
2023-04-02T13:10:43.150Z,12.66
2023-04-02T13:15:44.782Z,11.46
2023-04-02T13:21:03.665Z,10.96
2023-04-02T13:26:24.279Z,10.56
2023-04-02T13:31:26.271Z,10.37
2023-04-02T13:36:29.487Z,10.26
2023-04-02T13:41:35.050Z,10.27
2023-04-02T13:46:36.815Z,10.20
2023-04-02T13:51:47.046Z,9.91
2023-04-02T13:56:48.718Z,9.62
2023-04-02T14:01:53.297Z,9.25
2023-04-02T14:07:22.554Z,8.86
2023-04-02T14:12:30.741Z,8.48
2023-04-02T14:17:47.730Z,8.21
2023-04-02T14:23:10.528Z,8.09
2023-04-02T14:28:28.209Z,7.94
2023-04-02T14:33:44.710Z,7.80
2023-04-02T14:39:03.128Z,7.80
2023-04-02T14:44:07.423Z,7.86
2023-04-02T14:49:08.917Z,7.82
2023-04-02T14:54:34.645Z,7.70
2023-04-02T15:00:02.651Z,7.59
2023-04-02T15:05:15.584Z,7.53
2023-04-02T15:10:22.030Z,7.54
2023-04-02T15:15:44.555Z,7.51
2023-04-02T15:20:55.647Z,7.42
2023-04-02T15:26:15.977Z,7.46
2023-04-02T15:31:23.276Z,7.47
2023-04-02T15:36:48.114Z,7.40
2023-04-02T15:42:13.216Z,7.23
2023-04-02T15:47:38.575Z,7.13
2023-04-02T15:52:58.565Z,7.16
2023-04-02T15:58:20.638Z,7.10
2023-04-02T16:03:34.231Z,7.06
2023-04-02T16:08:57.017Z,6.99
2023-04-02T16:14:14.217Z,6.92
2023-04-02T16:20:04.617Z,6.94
2023-04-02T16:25:19.354Z,6.97
2023-04-02T16:30:41.995Z,6.85
2023-04-02T16:36:02.281Z,6.74
2023-04-02T16:41:19.128Z,6.69
2023-04-02T16:46:38.867Z,6.63
2023-04-02T16:52:13.995Z,6.62
2023-04-02T16:57:29.882Z,6.49
2023-04-02T17:02:47.465Z,6.39
2023-04-02T17:08:06.665Z,6.35
2023-04-02T17:13:31.575Z,6.40
2023-04-02T17:18:34.104Z,6.54
2023-04-02T17:23:56.739Z,6.75
2023-04-02T17:29:03.004Z,6.82
2023-04-02T17:34:16.054Z,6.83
2023-04-02T17:39:39.187Z,6.86
2023-04-02T17:44:53.163Z,6.85
2023-04-02T17:50:25.561Z,6.87
2023-04-02T17:55:50.184Z,6.88
2023-04-02T18:01:12.277Z,6.89
2023-04-02T18:06:31.852Z,6.88
2023-04-02T18:11:54.323Z,6.85
2023-04-02T18:17:01.868Z,6.81
2023-04-02T18:22:09.277Z,6.66
2023-04-02T18:27:35.055Z,6.50
2023-04-02T18:32:51.754Z,6.35
2023-04-02T18:38:02.446Z,6.24
2023-04-02T18:43:27.313Z,6.15
2023-04-02T18:48:41.035Z,6.04
2023-04-02T18:53:43.651Z,5.99
2023-04-02T18:58:49.499Z,5.89
2023-04-02T19:04:04.911Z,5.81
2023-04-02T19:09:15.197Z,5.71
2023-04-02T19:14:18.306Z,5.59
2023-04-02T19:19:23.178Z,5.54
2023-04-02T19:24:30.515Z,5.48
2023-04-02T19:29:54.049Z,5.39
2023-04-02T19:35:28.170Z,5.38
2023-04-02T19:40:39.237Z,5.33
2023-04-02T19:45:44.270Z,5.29
2023-04-02T19:50:46.980Z,5.22
2023-04-02T19:55:48.784Z,5.17
2023-04-02T20:00:50.408Z,5.12
2023-04-02T20:05:52.357Z,5.00
2023-04-02T20:10:53.926Z,4.87
2023-04-02T20:15:59.741Z,4.74
2023-04-02T20:21:06.364Z,4.62
2023-04-02T20:26:08.607Z,4.51
2023-04-02T20:31:15.972Z,4.45
2023-04-02T20:36:17.803Z,4.33
2023-04-02T20:41:20.109Z,4.28
2023-04-02T20:46:22.840Z,4.22
2023-04-02T20:51:24.437Z,4.16
2023-04-02T20:56:26.738Z,4.10
2023-04-02T21:01:29.743Z,4.08
2023-04-02T21:06:33.906Z,4.05
2023-04-02T21:11:40.780Z,4.03
2023-04-02T21:16:42.384Z,4.01
2023-04-02T21:21:44.854Z,3.98
2023-04-02T21:26:46.562Z,3.95
2023-04-02T21:31:48.268Z,3.92
2023-04-02T21:36:50.505Z,3.91
2023-04-02T21:41:53.479Z,3.90
2023-04-02T21:46:55.306Z,3.89
2023-04-02T21:51:56.969Z,3.89
2023-04-02T21:56:58.522Z,3.88
2023-04-02T22:02:00.300Z,3.85
2023-04-02T22:07:01.866Z,3.84
2023-04-02T22:12:03.530Z,3.82
2023-04-02T22:17:05.238Z,3.80
2023-04-02T22:22:06.783Z,3.75
2023-04-02T22:27:08.467Z,3.74
2023-04-02T22:32:10.010Z,3.71
2023-04-02T22:37:11.752Z,3.71
2023-04-02T22:42:13.272Z,3.69
2023-04-02T22:47:14.800Z,3.66
2023-04-02T22:52:16.604Z,3.61
2023-04-02T22:57:18.705Z,3.64
2023-04-02T23:02:20.377Z,3.60
2023-04-02T23:07:21.925Z,3.60
2023-04-02T23:12:23.444Z,3.60
2023-04-02T23:17:25.020Z,3.60
2023-04-02T23:22:26.560Z,3.57
2023-04-02T23:27:28.123Z,3.54
2023-04-02T23:32:29.696Z,3.56
2023-04-02T23:37:31.360Z,3.54
2023-04-02T23:42:32.949Z,3.53
2023-04-02T23:47:34.539Z,3.53
2023-04-02T23:52:36.059Z,3.52
2023-04-02T23:57:38.119Z,3.48
